Aviation Digital Data Service (ADDS)

Output produced by METARs form (0856 UTC 19 April 2019)
found at http://www.aviationweather.gov/metar/data/
 
Forecast for: MPTO (TOCUMEN , PA)
Text: TAF MPTO 190500Z 1906/2012 04006KT 9999 SCT018
Forecast period: 0600 UTC 19 April 2019 to 1200 UTC 20 April 2019
Forecast type: FROM: standard forecast or significant change
Winds: from the NE (40 degrees) at 7 MPH (6 knots; 3.1 m/s)
Visibility: 6 or more miles 10+ km)
Ceiling: at least 12,000 feet AGL
Clouds: scattered clouds at 1800 feet AGL
Weather: no significant weather forecast for this period
Text: TEMPO 1912/1916 34007KT
Forecast period: 1200 to 1600 UTC 19 April 2019
Forecast type: TEMPORARY: The following changes expected for less than half the time period
Winds: from the NNW (340 degrees) at 8 MPH (7 knots; 3.6 m/s)
Visibility: missing
Ceiling: unknown
Clouds: missing
Weather: no significant weather forecast for this period
Text: PROB30
Forecast period: 1700 to 2100 UTC 19 April 2019
Forecast type: TEMPORARY: The following changes expected for less than half the time period
Winds: from the S (170 degrees) at 9 MPH (8 knots; 4.1 m/s)
Visibility: 4 miles (7 km)
Ceiling: at least 12,000 feet AGL
Clouds: scattered clouds at 1800 feet AGL
scattered clouds at 9000 feet AGL
Weather: SHRA  (rain showers)